sensor_id;sensor_type;location;lat;lon;timestamp;temperature;humidity
14786;DHT22;7484;49.906;9.058;2022-08-26T00:00:53;23.30;99.90
14786;DHT22;7484;49.906;9.058;2022-08-26T00:03:21;23.20;99.90
14786;DHT22;7484;49.906;9.058;2022-08-26T00:05:48;23.20;99.90
14786;DHT22;7484;49.906;9.058;2022-08-26T00:08:17;23.30;99.90
14786;DHT22;7484;49.906;9.058;2022-08-26T00:10:44;23.30;99.90
14786;DHT22;7484;49.906;9.058;2022-08-26T00:13:11;23.40;99.90
14786;DHT22;7484;49.906;9.058;2022-08-26T00:15:40;23.10;99.90
14786;DHT22;7484;49.906;9.058;2022-08-26T00:18:06;23.20;99.90
14786;DHT22;7484;49.906;9.058;2022-08-26T00:20:34;23.30;99.90
14786;DHT22;7484;49.906;9.058;2022-08-26T00:23:01;23.20;99.90
14786;DHT22;7484;49.906;9.058;2022-08-26T00:25:28;23.30;99.90
14786;DHT22;7484;49.906;9.058;2022-08-26T00:27:55;23.10;99.90
14786;DHT22;7484;49.906;9.058;2022-08-26T00:30:24;22.90;99.90
14786;DHT22;7484;49.906;9.058;2022-08-26T00:32:53;22.80;99.90
14786;DHT22;7484;49.906;9.058;2022-08-26T00:35:20;22.90;99.90
14786;DHT22;7484;49.906;9.058;2022-08-26T00:37:47;23.10;99.90
14786;DHT22;7484;49.906;9.058;2022-08-26T00:40:16;23.20;99.90
14786;DHT22;7484;49.906;9.058;2022-08-26T00:42:45;23.20;99.90
14786;DHT22;7484;49.906;9.058;2022-08-26T00:45:12;23.20;99.90
14786;DHT22;7484;49.906;9.058;2022-08-26T00:47:43;23.20;99.90
14786;DHT22;7484;49.906;9.058;2022-08-26T00:50:15;23.40;99.90
14786;DHT22;7484;49.906;9.058;2022-08-26T00:52:43;23.40;99.90
14786;DHT22;7484;49.906;9.058;2022-08-26T00:55:15;23.30;99.90
14786;DHT22;7484;49.906;9.058;2022-08-26T00:57:43;23.10;99.90
14786;DHT22;7484;49.906;9.058;2022-08-26T01:00:15;23.00;99.90
14786;DHT22;7484;49.906;9.058;2022-08-26T01:02:42;23.00;99.90
14786;DHT22;7484;49.906;9.058;2022-08-26T01:05:11;23.00;99.90
14786;DHT22;7484;49.906;9.058;2022-08-26T01:07:38;23.00;99.90
14786;DHT22;7484;49.906;9.058;2022-08-26T01:10:08;23.00;99.90
14786;DHT22;7484;49.906;9.058;2022-08-26T01:12:40;23.00;99.90
14786;DHT22;7484;49.906;9.058;2022-08-26T01:15:09;23.00;99.90
14786;DHT22;7484;49.906;9.058;2022-08-26T01:17:38;23.10;99.90
14786;DHT22;7484;49.906;9.058;2022-08-26T01:20:11;23.10;99.90
14786;DHT22;7484;49.906;9.058;2022-08-26T01:22:49;23.00;99.90
14786;DHT22;7484;49.906;9.058;2022-08-26T01:25:20;23.10;99.90
14786;DHT22;7484;49.906;9.058;2022-08-26T01:27:48;23.10;99.90
14786;DHT22;7484;49.906;9.058;2022-08-26T01:30:15;23.20;99.90
14786;DHT22;7484;49.906;9.058;2022-08-26T01:32:42;23.20;99.90
14786;DHT22;7484;49.906;9.058;2022-08-26T01:35:10;23.20;99.90
14786;DHT22;7484;49.906;9.058;2022-08-26T01:37:38;23.10;99.90
14786;DHT22;7484;49.906;9.058;2022-08-26T01:40:11;23.00;99.90
14786;DHT22;7484;49.906;9.058;2022-08-26T01:42:40;22.90;99.90
14786;DHT22;7484;49.906;9.058;2022-08-26T01:45:11;22.80;99.90
14786;DHT22;7484;49.906;9.058;2022-08-26T01:47:40;22.70;99.90
14786;DHT22;7484;49.906;9.058;2022-08-26T01:50:10;22.50;99.90
14786;DHT22;7484;49.906;9.058;2022-08-26T01:52:41;22.40;99.90
14786;DHT22;7484;49.906;9.058;2022-08-26T01:55:11;22.30;99.90
14786;DHT22;7484;49.906;9.058;2022-08-26T01:57:40;22.30;99.90
14786;DHT22;7484;49.906;9.058;2022-08-26T02:00:09;22.20;99.90
14786;DHT22;7484;49.906;9.058;2022-08-26T02:02:41;22.10;99.90
14786;DHT22;7484;49.906;9.058;2022-08-26T02:05:13;22.10;99.90
14786;DHT22;7484;49.906;9.058;2022-08-26T02:07:40;22.30;99.90
14786;DHT22;7484;49.906;9.058;2022-08-26T02:10:09;22.30;99.90
14786;DHT22;7484;49.906;9.058;2022-08-26T02:12:36;22.20;99.90
14786;DHT22;7484;49.906;9.058;2022-08-26T02:15:06;22.10;99.90
14786;DHT22;7484;49.906;9.058;2022-08-26T02:17:37;21.90;99.90
14786;DHT22;7484;49.906;9.058;2022-08-26T02:20:05;21.80;99.90
14786;DHT22;7484;49.906;9.058;2022-08-26T02:22:33;21.70;99.90
14786;DHT22;7484;49.906;9.058;2022-08-26T02:25:10;21.70;99.90
14786;DHT22;7484;49.906;9.058;2022-08-26T02:27:38;21.70;99.90
14786;DHT22;7484;49.906;9.058;2022-08-26T02:30:08;21.70;99.90
14786;DHT22;7484;49.906;9.058;2022-08-26T02:32:36;21.80;99.90
14786;DHT22;7484;49.906;9.058;2022-08-26T02:35:03;21.90;99.90
14786;DHT22;7484;49.906;9.058;2022-08-26T02:37:32;22.20;99.90
14786;DHT22;7484;49.906;9.058;2022-08-26T02:39:59;22.30;99.90
14786;DHT22;7484;49.906;9.058;2022-08-26T02:42:27;22.40;99.90
14786;DHT22;7484;49.906;9.058;2022-08-26T02:44:54;22.50;99.90
14786;DHT22;7484;49.906;9.058;2022-08-26T02:47:21;22.40;99.90
14786;DHT22;7484;49.906;9.058;2022-08-26T02:49:47;22.30;99.90
14786;DHT22;7484;49.906;9.058;2022-08-26T02:52:14;22.20;99.90
14786;DHT22;7484;49.906;9.058;2022-08-26T02:54:42;22.10;99.90
14786;DHT22;7484;49.906;9.058;2022-08-26T02:57:08;22.00;99.90
14786;DHT22;7484;49.906;9.058;2022-08-26T02:59:36;22.00;99.90
14786;DHT22;7484;49.906;9.058;2022-08-26T03:02:04;22.10;99.90
14786;DHT22;7484;49.906;9.058;2022-08-26T03:04:31;22.10;99.90
14786;DHT22;7484;49.906;9.058;2022-08-26T03:06:58;22.30;99.90
14786;DHT22;7484;49.906;9.058;2022-08-26T03:09:25;22.40;99.90
14786;DHT22;7484;49.906;9.058;2022-08-26T03:11:52;22.40;99.90
14786;DHT22;7484;49.906;9.058;2022-08-26T03:14:19;22.40;99.90
14786;DHT22;7484;49.906;9.058;2022-08-26T03:16:50;22.30;99.90
14786;DHT22;7484;49.906;9.058;2022-08-26T03:19:19;22.30;99.90
14786;DHT22;7484;49.906;9.058;2022-08-26T03:21:46;22.30;99.90
14786;DHT22;7484;49.906;9.058;2022-08-26T03:24:13;22.20;99.90
14786;DHT22;7484;49.906;9.058;2022-08-26T03:26:40;22.20;99.90
14786;DHT22;7484;49.906;9.058;2022-08-26T03:29:06;22.20;99.90
14786;DHT22;7484;49.906;9.058;2022-08-26T03:32:01;22.20;99.90
14786;DHT22;7484;49.906;9.058;2022-08-26T03:34:28;22.30;99.90
14786;DHT22;7484;49.906;9.058;2022-08-26T03:36:56;22.10;99.90
14786;DHT22;7484;49.906;9.058;2022-08-26T03:39:23;21.70;99.90
14786;DHT22;7484;49.906;9.058;2022-08-26T03:41:50;21.50;99.90
14786;DHT22;7484;49.906;9.058;2022-08-26T03:44:17;21.50;99.90
14786;DHT22;7484;49.906;9.058;2022-08-26T03:46:44;21.50;99.90
14786;DHT22;7484;49.906;9.058;2022-08-26T03:49:12;21.50;99.90
14786;DHT22;7484;49.906;9.058;2022-08-26T03:51:39;21.50;99.90
14786;DHT22;7484;49.906;9.058;2022-08-26T03:54:06;21.50;99.90
14786;DHT22;7484;49.906;9.058;2022-08-26T03:56:34;21.40;99.90
14786;DHT22;7484;49.906;9.058;2022-08-26T03:59:01;21.40;99.90
14786;DHT22;7484;49.906;9.058;2022-08-26T04:01:29;21.50;99.90
14786;DHT22;7484;49.906;9.058;2022-08-26T04:03:56;21.60;99.90
14786;DHT22;7484;49.906;9.058;2022-08-26T04:06:28;21.60;99.90
14786;DHT22;7484;49.906;9.058;2022-08-26T04:08:58;21.60;99.90
14786;DHT22;7484;49.906;9.058;2022-08-26T04:11:27;21.70;99.90
14786;DHT22;7484;49.906;9.058;2022-08-26T04:13:57;21.80;99.90
14786;DHT22;7484;49.906;9.058;2022-08-26T04:16:26;21.70;99.90
14786;DHT22;7484;49.906;9.058;2022-08-26T04:18:53;21.70;99.90
14786;DHT22;7484;49.906;9.058;2022-08-26T04:21:20;21.70;99.90
14786;DHT22;7484;49.906;9.058;2022-08-26T04:23:49;21.60;99.90
14786;DHT22;7484;49.906;9.058;2022-08-26T04:26:17;21.70;99.90
14786;DHT22;7484;49.906;9.058;2022-08-26T04:28:44;21.70;99.90
14786;DHT22;7484;49.906;9.058;2022-08-26T04:31:12;21.70;99.90
14786;DHT22;7484;49.906;9.058;2022-08-26T04:33:40;21.80;99.90
14786;DHT22;7484;49.906;9.058;2022-08-26T04:36:07;21.80;99.90
14786;DHT22;7484;49.906;9.058;2022-08-26T04:38:34;21.50;99.90
14786;DHT22;7484;49.906;9.058;2022-08-26T04:41:02;21.20;99.90
14786;DHT22;7484;49.906;9.058;2022-08-26T04:43:29;21.10;99.90
14786;DHT22;7484;49.906;9.058;2022-08-26T04:45:58;21.00;99.90
14786;DHT22;7484;49.906;9.058;2022-08-26T04:48:26;21.10;99.90
14786;DHT22;7484;49.906;9.058;2022-08-26T04:50:54;21.10;99.90
14786;DHT22;7484;49.906;9.058;2022-08-26T04:53:21;21.10;99.90
14786;DHT22;7484;49.906;9.058;2022-08-26T04:55:48;21.20;99.90
14786;DHT22;7484;49.906;9.058;2022-08-26T04:58:17;21.30;99.90
14786;DHT22;7484;49.906;9.058;2022-08-26T05:00:45;21.40;99.90
14786;DHT22;7484;49.906;9.058;2022-08-26T05:03:12;21.50;99.90
14786;DHT22;7484;49.906;9.058;2022-08-26T05:05:40;21.50;99.90
14786;DHT22;7484;49.906;9.058;2022-08-26T05:08:08;21.50;99.90
14786;DHT22;7484;49.906;9.058;2022-08-26T05:10:38;21.50;99.90
14786;DHT22;7484;49.906;9.058;2022-08-26T05:13:05;21.50;99.90
14786;DHT22;7484;49.906;9.058;2022-08-26T05:15:35;21.50;99.90
14786;DHT22;7484;49.906;9.058;2022-08-26T05:18:02;21.60;99.90
14786;DHT22;7484;49.906;9.058;2022-08-26T05:20:29;21.60;99.90
14786;DHT22;7484;49.906;9.058;2022-08-26T05:22:57;21.70;99.90
14786;DHT22;7484;49.906;9.058;2022-08-26T05:25:25;21.80;99.90
14786;DHT22;7484;49.906;9.058;2022-08-26T05:27:51;21.90;99.90
14786;DHT22;7484;49.906;9.058;2022-08-26T05:30:18;21.70;99.90
14786;DHT22;7484;49.906;9.058;2022-08-26T05:32:47;21.70;99.90
14786;DHT22;7484;49.906;9.058;2022-08-26T05:35:14;21.60;99.90
14786;DHT22;7484;49.906;9.058;2022-08-26T05:37:42;21.70;99.90
14786;DHT22;7484;49.906;9.058;2022-08-26T05:40:09;21.90;99.90
14786;DHT22;7484;49.906;9.058;2022-08-26T05:42:36;22.10;99.90
14786;DHT22;7484;49.906;9.058;2022-08-26T05:45:04;22.20;99.90
14786;DHT22;7484;49.906;9.058;2022-08-26T05:47:30;22.30;99.90
14786;DHT22;7484;49.906;9.058;2022-08-26T05:49:58;22.40;99.90
14786;DHT22;7484;49.906;9.058;2022-08-26T05:52:29;22.50;99.90
14786;DHT22;7484;49.906;9.058;2022-08-26T05:54:56;22.60;99.90
14786;DHT22;7484;49.906;9.058;2022-08-26T05:57:23;22.60;99.90
14786;DHT22;7484;49.906;9.058;2022-08-26T05:59:50;22.70;99.90
14786;DHT22;7484;49.906;9.058;2022-08-26T06:02:17;22.70;99.90
14786;DHT22;7484;49.906;9.058;2022-08-26T06:04:44;22.60;99.90
14786;DHT22;7484;49.906;9.058;2022-08-26T06:07:12;22.70;99.90
14786;DHT22;7484;49.906;9.058;2022-08-26T06:09:39;22.70;99.90
14786;DHT22;7484;49.906;9.058;2022-08-26T06:12:06;22.70;99.90
14786;DHT22;7484;49.906;9.058;2022-08-26T06:14:33;22.80;99.90
14786;DHT22;7484;49.906;9.058;2022-08-26T06:17:00;22.70;99.90
14786;DHT22;7484;49.906;9.058;2022-08-26T06:19:26;22.80;99.90
14786;DHT22;7484;49.906;9.058;2022-08-26T06:21:53;22.70;99.90
14786;DHT22;7484;49.906;9.058;2022-08-26T06:24:22;22.80;99.90
14786;DHT22;7484;49.906;9.058;2022-08-26T06:27:06;22.90;99.90
14786;DHT22;7484;49.906;9.058;2022-08-26T06:29:35;23.10;99.90
14786;DHT22;7484;49.906;9.058;2022-08-26T06:32:03;23.30;99.90
14786;DHT22;7484;49.906;9.058;2022-08-26T06:34:29;23.60;99.90
14786;DHT22;7484;49.906;9.058;2022-08-26T06:36:58;23.70;99.90
14786;DHT22;7484;49.906;9.058;2022-08-26T06:39:28;23.80;99.90
14786;DHT22;7484;49.906;9.058;2022-08-26T06:41:54;23.90;99.90
14786;DHT22;7484;49.906;9.058;2022-08-26T06:44:23;23.90;99.90
14786;DHT22;7484;49.906;9.058;2022-08-26T06:46:50;24.00;99.90
14786;DHT22;7484;49.906;9.058;2022-08-26T06:49:17;24.00;99.90
14786;DHT22;7484;49.906;9.058;2022-08-26T06:51:43;24.10;99.90
14786;DHT22;7484;49.906;9.058;2022-08-26T06:54:10;24.20;99.90
14786;DHT22;7484;49.906;9.058;2022-08-26T06:56:40;24.30;99.90
14786;DHT22;7484;49.906;9.058;2022-08-26T06:59:09;24.50;99.90
14786;DHT22;7484;49.906;9.058;2022-08-26T07:01:38;24.70;99.90
14786;DHT22;7484;49.906;9.058;2022-08-26T07:04:09;24.80;99.90
14786;DHT22;7484;49.906;9.058;2022-08-26T07:06:38;24.90;99.90
14786;DHT22;7484;49.906;9.058;2022-08-26T07:09:08;25.10;99.90
14786;DHT22;7484;49.906;9.058;2022-08-26T07:11:37;25.00;99.90
14786;DHT22;7484;49.906;9.058;2022-08-26T07:14:04;25.00;99.90
14786;DHT22;7484;49.906;9.058;2022-08-26T07:16:32;25.10;99.90
14786;DHT22;7484;49.906;9.058;2022-08-26T07:18:59;25.40;99.90
14786;DHT22;7484;49.906;9.058;2022-08-26T07:21:26;25.70;99.90
14786;DHT22;7484;49.906;9.058;2022-08-26T07:23:53;25.80;99.90
14786;DHT22;7484;49.906;9.058;2022-08-26T07:26:22;25.80;99.90
14786;DHT22;7484;49.906;9.058;2022-08-26T07:28:51;25.80;99.90
14786;DHT22;7484;49.906;9.058;2022-08-26T07:31:20;26.00;99.90
14786;DHT22;7484;49.906;9.058;2022-08-26T07:33:48;26.00;99.90
14786;DHT22;7484;49.906;9.058;2022-08-26T07:36:15;26.20;99.90
14786;DHT22;7484;49.906;9.058;2022-08-26T07:38:43;26.20;99.90
14786;DHT22;7484;49.906;9.058;2022-08-26T07:41:10;26.30;99.90
14786;DHT22;7484;49.906;9.058;2022-08-26T07:43:39;26.40;99.90
14786;DHT22;7484;49.906;9.058;2022-08-26T07:46:07;26.50;99.90
14786;DHT22;7484;49.906;9.058;2022-08-26T07:48:34;26.60;99.90
14786;DHT22;7484;49.906;9.058;2022-08-26T07:51:02;26.60;99.90
14786;DHT22;7484;49.906;9.058;2022-08-26T07:53:29;26.70;99.90
14786;DHT22;7484;49.906;9.058;2022-08-26T07:55:55;26.70;99.90
14786;DHT22;7484;49.906;9.058;2022-08-26T07:58:23;26.80;99.90
14786;DHT22;7484;49.906;9.058;2022-08-26T08:00:50;27.00;99.90
14786;DHT22;7484;49.906;9.058;2022-08-26T08:03:18;27.10;99.90
14786;DHT22;7484;49.906;9.058;2022-08-26T08:05:46;27.10;99.90
14786;DHT22;7484;49.906;9.058;2022-08-26T08:08:13;27.10;99.90
14786;DHT22;7484;49.906;9.058;2022-08-26T08:10:40;27.20;99.90
14786;DHT22;7484;49.906;9.058;2022-08-26T08:13:09;27.30;99.90
14786;DHT22;7484;49.906;9.058;2022-08-26T08:15:36;27.40;99.90
14786;DHT22;7484;49.906;9.058;2022-08-26T08:18:03;27.40;99.90
14786;DHT22;7484;49.906;9.058;2022-08-26T08:20:32;27.60;99.90
14786;DHT22;7484;49.906;9.058;2022-08-26T08:23:00;27.70;99.90
14786;DHT22;7484;49.906;9.058;2022-08-26T08:25:29;27.80;99.90
14786;DHT22;7484;49.906;9.058;2022-08-26T08:27:55;27.90;99.90
14786;DHT22;7484;49.906;9.058;2022-08-26T08:30:22;28.00;99.90
14786;DHT22;7484;49.906;9.058;2022-08-26T08:32:49;28.10;99.90
14786;DHT22;7484;49.906;9.058;2022-08-26T08:35:18;28.30;99.90
14786;DHT22;7484;49.906;9.058;2022-08-26T08:37:48;28.20;99.90
14786;DHT22;7484;49.906;9.058;2022-08-26T08:40:16;28.30;99.90
14786;DHT22;7484;49.906;9.058;2022-08-26T08:42:46;28.30;99.90
14786;DHT22;7484;49.906;9.058;2022-08-26T08:45:16;28.50;99.90
14786;DHT22;7484;49.906;9.058;2022-08-26T08:47:48;28.50;99.90
14786;DHT22;7484;49.906;9.058;2022-08-26T08:50:22;28.60;99.90
14786;DHT22;7484;49.906;9.058;2022-08-26T08:52:55;28.60;99.90
14786;DHT22;7484;49.906;9.058;2022-08-26T08:55:28;28.70;99.90
14786;DHT22;7484;49.906;9.058;2022-08-26T08:58:02;28.70;99.90
14786;DHT22;7484;49.906;9.058;2022-08-26T09:00:35;28.70;99.90
14786;DHT22;7484;49.906;9.058;2022-08-26T09:03:10;28.70;99.90
14786;DHT22;7484;49.906;9.058;2022-08-26T09:05:44;28.70;99.90
14786;DHT22;7484;49.906;9.058;2022-08-26T09:08:20;28.60;99.90
14786;DHT22;7484;49.906;9.058;2022-08-26T09:10:52;28.60;99.90
14786;DHT22;7484;49.906;9.058;2022-08-26T09:13:21;28.60;99.90
14786;DHT22;7484;49.906;9.058;2022-08-26T09:15:54;28.60;99.90
14786;DHT22;7484;49.906;9.058;2022-08-26T09:18:35;28.70;99.90
14786;DHT22;7484;49.906;9.058;2022-08-26T09:21:05;28.70;99.90
14786;DHT22;7484;49.906;9.058;2022-08-26T09:23:36;28.70;99.90
14786;DHT22;7484;49.906;9.058;2022-08-26T09:26:14;28.80;99.90
14786;DHT22;7484;49.906;9.058;2022-08-26T09:28:45;28.80;99.90
14786;DHT22;7484;49.906;9.058;2022-08-26T09:31:14;28.80;99.90
14786;DHT22;7484;49.906;9.058;2022-08-26T09:33:44;29.00;99.90
14786;DHT22;7484;49.906;9.058;2022-08-26T09:36:15;29.20;99.90
14786;DHT22;7484;49.906;9.058;2022-08-26T09:38:44;29.30;99.70
14786;DHT22;7484;49.906;9.058;2022-08-26T09:41:23;29.20;99.40
14786;DHT22;7484;49.906;9.058;2022-08-26T09:44:11;29.30;99.30
14786;DHT22;7484;49.906;9.058;2022-08-26T09:46:41;29.50;98.80
14786;DHT22;7484;49.906;9.058;2022-08-26T09:49:31;29.70;98.30
14786;DHT22;7484;49.906;9.058;2022-08-26T09:52:14;30.00;97.50
14786;DHT22;7484;49.906;9.058;2022-08-26T09:54:43;30.20;97.00
14786;DHT22;7484;49.906;9.058;2022-08-26T09:57:19;30.30;96.60
14786;DHT22;7484;49.906;9.058;2022-08-26T09:59:46;30.40;96.20
14786;DHT22;7484;49.906;9.058;2022-08-26T10:02:36;30.40;96.20
14786;DHT22;7484;49.906;9.058;2022-08-26T10:05:08;30.40;95.80
14786;DHT22;7484;49.906;9.058;2022-08-26T10:07:43;30.40;95.70
14786;DHT22;7484;49.906;9.058;2022-08-26T10:10:17;30.70;95.60
14786;DHT22;7484;49.906;9.058;2022-08-26T10:12:50;30.90;94.80
14786;DHT22;7484;49.906;9.058;2022-08-26T10:15:18;30.90;94.60
14786;DHT22;7484;49.906;9.058;2022-08-26T10:17:50;30.90;94.70
14786;DHT22;7484;49.906;9.058;2022-08-26T10:20:20;30.80;95.00
14786;DHT22;7484;49.906;9.058;2022-08-26T10:22:54;30.70;94.80
14786;DHT22;7484;49.906;9.058;2022-08-26T10:25:26;30.70;94.60
14786;DHT22;7484;49.906;9.058;2022-08-26T10:27:59;30.90;94.00
14786;DHT22;7484;49.906;9.058;2022-08-26T10:30:31;31.20;93.40
14786;DHT22;7484;49.906;9.058;2022-08-26T10:33:02;31.50;93.20
14786;DHT22;7484;49.906;9.058;2022-08-26T10:35:30;31.70;92.50
14786;DHT22;7484;49.906;9.058;2022-08-26T10:38:03;31.90;91.90
14786;DHT22;7484;49.906;9.058;2022-08-26T10:40:43;32.10;91.30
14786;DHT22;7484;49.906;9.058;2022-08-26T10:43:15;32.30;90.90
14786;DHT22;7484;49.906;9.058;2022-08-26T10:45:46;32.20;90.80
14786;DHT22;7484;49.906;9.058;2022-08-26T10:48:17;32.20;90.60
14786;DHT22;7484;49.906;9.058;2022-08-26T10:50:47;32.30;90.50
14786;DHT22;7484;49.906;9.058;2022-08-26T10:53:19;32.60;89.20
14786;DHT22;7484;49.906;9.058;2022-08-26T10:55:53;32.90;89.60
14786;DHT22;7484;49.906;9.058;2022-08-26T10:58:45;32.50;89.30
14786;DHT22;7484;49.906;9.058;2022-08-26T11:01:18;32.30;90.10
14786;DHT22;7484;49.906;9.058;2022-08-26T11:04:08;31.90;88.70
14786;DHT22;7484;49.906;9.058;2022-08-26T11:06:37;31.90;88.80
14786;DHT22;7484;49.906;9.058;2022-08-26T11:09:05;32.10;87.80
14786;DHT22;7484;49.906;9.058;2022-08-26T11:11:46;32.40;86.40
14786;DHT22;7484;49.906;9.058;2022-08-26T11:14:36;32.50;84.30
14786;DHT22;7484;49.906;9.058;2022-08-26T11:17:09;32.70;84.60
14786;DHT22;7484;49.906;9.058;2022-08-26T11:19:59;32.70;83.90
14786;DHT22;7484;49.906;9.058;2022-08-26T11:22:27;32.50;85.50
14786;DHT22;7484;49.906;9.058;2022-08-26T11:25:12;32.30;85.80
14786;DHT22;7484;49.906;9.058;2022-08-26T11:28:01;32.10;87.00
14786;DHT22;7484;49.906;9.058;2022-08-26T11:30:42;31.60;88.10
14786;DHT22;7484;49.906;9.058;2022-08-26T11:33:09;31.30;89.20
14786;DHT22;7484;49.906;9.058;2022-08-26T11:35:50;30.90;90.40
14786;DHT22;7484;49.906;9.058;2022-08-26T11:38:24;30.60;90.90
14786;DHT22;7484;49.906;9.058;2022-08-26T11:41:10;30.10;91.40
14786;DHT22;7484;49.906;9.058;2022-08-26T11:43:39;29.90;92.20
14786;DHT22;7484;49.906;9.058;2022-08-26T11:46:08;29.70;92.50
14786;DHT22;7484;49.906;9.058;2022-08-26T11:48:38;29.70;93.00
14786;DHT22;7484;49.906;9.058;2022-08-26T11:51:07;29.60;93.00
14786;DHT22;7484;49.906;9.058;2022-08-26T11:53:36;29.40;93.20
14786;DHT22;7484;49.906;9.058;2022-08-26T11:56:08;29.10;93.60
14786;DHT22;7484;49.906;9.058;2022-08-26T11:58:41;29.00;94.30
14786;DHT22;7484;49.906;9.058;2022-08-26T12:01:10;28.80;94.80
14786;DHT22;7484;49.906;9.058;2022-08-26T12:03:44;28.60;94.70
14786;DHT22;7484;49.906;9.058;2022-08-26T12:06:14;28.80;94.80
14786;DHT22;7484;49.906;9.058;2022-08-26T12:08:43;28.80;95.00
14786;DHT22;7484;49.906;9.058;2022-08-26T12:11:17;28.90;94.90
14786;DHT22;7484;49.906;9.058;2022-08-26T12:13:54;29.10;94.70
14786;DHT22;7484;49.906;9.058;2022-08-26T12:16:23;29.30;94.80
14786;DHT22;7484;49.906;9.058;2022-08-26T12:18:50;29.40;94.70
14786;DHT22;7484;49.906;9.058;2022-08-26T12:21:20;29.40;94.30
14786;DHT22;7484;49.906;9.058;2022-08-26T12:23:49;29.50;94.40
14786;DHT22;7484;49.906;9.058;2022-08-26T12:26:22;29.50;94.90
14786;DHT22;7484;49.906;9.058;2022-08-26T12:28:54;29.50;94.70
14786;DHT22;7484;49.906;9.058;2022-08-26T12:31:29;29.50;94.60
14786;DHT22;7484;49.906;9.058;2022-08-26T12:33:57;29.30;94.70
14786;DHT22;7484;49.906;9.058;2022-08-26T12:36:27;29.40;94.80
14786;DHT22;7484;49.906;9.058;2022-08-26T12:38:56;29.50;94.80
14786;DHT22;7484;49.906;9.058;2022-08-26T12:41:45;29.30;95.00
14786;DHT22;7484;49.906;9.058;2022-08-26T12:44:41;29.20;95.30
14786;DHT22;7484;49.906;9.058;2022-08-26T12:47:15;29.10;95.50
14786;DHT22;7484;49.906;9.058;2022-08-26T12:49:43;29.00;95.80
14786;DHT22;7484;49.906;9.058;2022-08-26T12:52:20;28.90;95.80
14786;DHT22;7484;49.906;9.058;2022-08-26T12:54:55;29.00;96.00
14786;DHT22;7484;49.906;9.058;2022-08-26T12:57:27;29.10;95.80
14786;DHT22;7484;49.906;9.058;2022-08-26T13:03:37;29.40;96.50
14786;DHT22;7484;49.906;9.058;2022-08-26T13:06:24;29.50;95.70
14786;DHT22;7484;49.906;9.058;2022-08-26T13:08:53;29.60;95.40
14786;DHT22;7484;49.906;9.058;2022-08-26T13:11:23;29.70;95.20
14786;DHT22;7484;49.906;9.058;2022-08-26T13:13:52;29.80;94.90
14786;DHT22;7484;49.906;9.058;2022-08-26T13:16:19;29.80;94.70
14786;DHT22;7484;49.906;9.058;2022-08-26T13:18:50;29.80;94.70
14786;DHT22;7484;49.906;9.058;2022-08-26T13:21:20;29.80;95.00
14786;DHT22;7484;49.906;9.058;2022-08-26T13:23:48;29.70;94.80
14786;DHT22;7484;49.906;9.058;2022-08-26T13:26:15;29.70;94.90
14786;DHT22;7484;49.906;9.058;2022-08-26T13:28:42;29.60;94.30
14786;DHT22;7484;49.906;9.058;2022-08-26T13:31:09;29.70;94.30
14786;DHT22;7484;49.906;9.058;2022-08-26T13:33:37;29.70;94.00
14786;DHT22;7484;49.906;9.058;2022-08-26T13:36:06;29.80;94.00
14786;DHT22;7484;49.906;9.058;2022-08-26T13:38:32;29.80;93.70
14786;DHT22;7484;49.906;9.058;2022-08-26T13:41:00;29.90;93.60
14786;DHT22;7484;49.906;9.058;2022-08-26T13:43:28;30.00;93.50
14786;DHT22;7484;49.906;9.058;2022-08-26T13:45:55;30.00;93.50
14786;DHT22;7484;49.906;9.058;2022-08-26T13:48:22;30.00;93.50
14786;DHT22;7484;49.906;9.058;2022-08-26T13:50:49;30.10;93.50
14786;DHT22;7484;49.906;9.058;2022-08-26T13:53:17;30.10;93.40
14786;DHT22;7484;49.906;9.058;2022-08-26T13:55:44;30.20;93.40
14786;DHT22;7484;49.906;9.058;2022-08-26T13:58:11;30.20;93.30
14786;DHT22;7484;49.906;9.058;2022-08-26T14:00:39;30.20;93.10
14786;DHT22;7484;49.906;9.058;2022-08-26T14:03:07;29.90;93.20
14786;DHT22;7484;49.906;9.058;2022-08-26T14:05:34;29.90;92.90
14786;DHT22;7484;49.906;9.058;2022-08-26T14:08:01;29.80;93.00
14786;DHT22;7484;49.906;9.058;2022-08-26T14:10:29;29.90;93.50
14786;DHT22;7484;49.906;9.058;2022-08-26T14:12:56;30.00;93.40
14786;DHT22;7484;49.906;9.058;2022-08-26T14:15:22;30.10;93.50
14786;DHT22;7484;49.906;9.058;2022-08-26T14:17:50;30.20;93.30
14786;DHT22;7484;49.906;9.058;2022-08-26T14:20:22;30.20;93.30
14786;DHT22;7484;49.906;9.058;2022-08-26T14:22:49;30.20;93.20
14786;DHT22;7484;49.906;9.058;2022-08-26T14:25:17;30.30;93.20
14786;DHT22;7484;49.906;9.058;2022-08-26T14:27:45;30.10;92.90
14786;DHT22;7484;49.906;9.058;2022-08-26T14:30:12;30.20;92.90
14786;DHT22;7484;49.906;9.058;2022-08-26T14:32:42;30.30;92.80
14786;DHT22;7484;49.906;9.058;2022-08-26T14:35:12;30.30;92.70
14786;DHT22;7484;49.906;9.058;2022-08-26T14:37:41;30.40;93.10
14786;DHT22;7484;49.906;9.058;2022-08-26T14:40:08;30.40;92.20
14786;DHT22;7484;49.906;9.058;2022-08-26T14:42:45;30.50;92.10
14786;DHT22;7484;49.906;9.058;2022-08-26T14:45:16;30.60;91.70
14786;DHT22;7484;49.906;9.058;2022-08-26T14:47:43;30.60;91.80
14786;DHT22;7484;49.906;9.058;2022-08-26T14:50:11;30.70;91.70
14786;DHT22;7484;49.906;9.058;2022-08-26T14:52:38;30.70;91.50
14786;DHT22;7484;49.906;9.058;2022-08-26T14:55:23;30.70;92.10
14786;DHT22;7484;49.906;9.058;2022-08-26T14:57:51;30.40;92.70
14786;DHT22;7484;49.906;9.058;2022-08-26T15:00:18;30.00;93.10
14786;DHT22;7484;49.906;9.058;2022-08-26T15:02:45;30.10;93.10
14786;DHT22;7484;49.906;9.058;2022-08-26T15:05:12;30.30;92.70
14786;DHT22;7484;49.906;9.058;2022-08-26T15:07:39;30.70;92.50
14786;DHT22;7484;49.906;9.058;2022-08-26T15:10:08;31.20;92.00
14786;DHT22;7484;49.906;9.058;2022-08-26T15:12:36;31.70;91.30
14786;DHT22;7484;49.906;9.058;2022-08-26T15:15:05;32.00;90.60
14786;DHT22;7484;49.906;9.058;2022-08-26T15:17:32;31.90;90.90
14786;DHT22;7484;49.906;9.058;2022-08-26T15:20:00;31.70;90.80
14786;DHT22;7484;49.906;9.058;2022-08-26T15:22:27;31.50;90.50
14786;DHT22;7484;49.906;9.058;2022-08-26T15:24:55;31.00;90.40
14786;DHT22;7484;49.906;9.058;2022-08-26T15:27:22;30.50;90.70
14786;DHT22;7484;49.906;9.058;2022-08-26T15:29:49;30.10;91.30
14786;DHT22;7484;49.906;9.058;2022-08-26T15:32:18;29.70;91.20
14786;DHT22;7484;49.906;9.058;2022-08-26T15:34:45;29.50;92.00
14786;DHT22;7484;49.906;9.058;2022-08-26T15:37:14;29.40;92.50
14786;DHT22;7484;49.906;9.058;2022-08-26T15:39:41;29.20;92.70
14786;DHT22;7484;49.906;9.058;2022-08-26T15:42:08;29.10;92.80
14786;DHT22;7484;49.906;9.058;2022-08-26T15:44:36;29.00;93.10
14786;DHT22;7484;49.906;9.058;2022-08-26T15:47:02;28.90;93.10
14786;DHT22;7484;49.906;9.058;2022-08-26T15:49:30;28.90;93.70
14786;DHT22;7484;49.906;9.058;2022-08-26T15:51:57;28.80;93.90
14786;DHT22;7484;49.906;9.058;2022-08-26T15:54:24;28.60;94.20
14786;DHT22;7484;49.906;9.058;2022-08-26T15:56:51;28.50;94.20
14786;DHT22;7484;49.906;9.058;2022-08-26T15:59:18;28.40;94.00
14786;DHT22;7484;49.906;9.058;2022-08-26T16:01:46;28.40;94.10
14786;DHT22;7484;49.906;9.058;2022-08-26T16:04:13;28.20;93.90